Terminal Aerodrome Forecast
Issued by NWS

Home | Current Version | Previous Version | Text Only | Print | Product List | Glossary On
Versions: 1 2 3 4 5 6 7 8 9 10 11 12 13 14 15 16 17 18
000
FTUS45 KABQ 240500
TAFSAF
TAF
KSAF 240524Z 2406/2506 10008KT P6SM FEW200
     FM240800 VRB04KT P6SM FEW200
     FM241800 23011KT P6SM FEW100 SCT200
     FM250200 VRB05KT P6SM SCT120=

USA.gov is the U.S. government's official web portal to all federal, state and local government web resources and services.